sensor_id;sensor_type;location;lat;lon;timestamp;P1;durP1;ratioP1;P2;durP2;ratioP2
37645;SDS011;23489;49.600;6.138;2023-07-28T06:35:23;5.72;;;3.90;;
37645;SDS011;23489;49.600;6.138;2023-07-28T06:37:49;5.03;;;3.78;;
37645;SDS011;23489;49.600;6.138;2023-07-28T06:40:14;4.28;;;2.95;;
37645;SDS011;23489;49.600;6.138;2023-07-28T07:46:03;3.65;;;3.25;;
37645;SDS011;23489;49.600;6.138;2023-07-28T07:48:29;4.18;;;3.63;;
37645;SDS011;23489;49.600;6.138;2023-07-28T07:50:55;3.72;;;3.33;;
37645;SDS011;23489;49.600;6.138;2023-07-28T07:53:21;5.57;;;3.28;;
37645;SDS011;23489;49.600;6.138;2023-07-28T07:55:47;3.38;;;3.08;;
37645;SDS011;23489;49.600;6.138;2023-07-28T07:58:14;3.42;;;3.10;;
37645;SDS011;23489;49.600;6.138;2023-07-28T08:00:39;4.43;;;3.20;;
37645;SDS011;23489;49.600;6.138;2023-07-28T08:03:05;5.45;;;2.95;;
37645;SDS011;23489;49.600;6.138;2023-07-28T08:05:31;3.00;;;2.63;;
37645;SDS011;23489;49.600;6.138;2023-07-28T08:07:57;3.00;;;2.70;;
37645;SDS011;23489;49.600;6.138;2023-07-28T08:10:22;3.65;;;2.80;;
37645;SDS011;23489;49.600;6.138;2023-07-28T08:12:48;3.03;;;2.70;;
37645;SDS011;23489;49.600;6.138;2023-07-28T08:15:14;4.05;;;2.78;;
37645;SDS011;23489;49.600;6.138;2023-07-28T08:17:40;4.25;;;2.80;;
37645;SDS011;23489;49.600;6.138;2023-07-28T08:20:06;3.90;;;2.60;;
37645;SDS011;23489;49.600;6.138;2023-07-28T08:22:33;4.20;;;2.75;;
37645;SDS011;23489;49.600;6.138;2023-07-28T08:24:58;3.63;;;2.60;;
37645;SDS011;23489;49.600;6.138;2023-07-28T08:27:24;3.10;;;2.30;;
37645;SDS011;23489;49.600;6.138;2023-07-28T08:29:50;2.72;;;2.42;;
37645;SDS011;23489;49.600;6.138;2023-07-28T08:32:15;3.05;;;2.55;;
37645;SDS011;23489;49.600;6.138;2023-07-28T08:34:42;4.95;;;3.13;;
37645;SDS011;23489;49.600;6.138;2023-07-28T08:37:07;3.53;;;2.65;;
37645;SDS011;23489;49.600;6.138;2023-07-28T08:39:33;3.67;;;2.55;;
37645;SDS011;23489;49.600;6.138;2023-07-28T08:42:02;3.10;;;2.60;;
37645;SDS011;23489;49.600;6.138;2023-07-28T08:44:31;3.05;;;2.65;;
37645;SDS011;23489;49.600;6.138;2023-07-28T08:46:59;3.13;;;2.75;;
37645;SDS011;23489;49.600;6.138;2023-07-28T08:49:27;3.72;;;2.20;;
37645;SDS011;23489;49.600;6.138;2023-07-28T08:51:56;2.30;;;2.10;;
37645;SDS011;23489;49.600;6.138;2023-07-28T08:54:23;2.63;;;2.08;;
37645;SDS011;23489;49.600;6.138;2023-07-28T08:56:49;2.50;;;2.23;;
37645;SDS011;23489;49.600;6.138;2023-07-28T08:59:22;2.70;;;1.90;;
37645;SDS011;23489;49.600;6.138;2023-07-28T09:01:52;1.92;;;1.75;;
37645;SDS011;23489;49.600;6.138;2023-07-28T09:04:19;2.05;;;1.80;;
37645;SDS011;23489;49.600;6.138;2023-07-28T09:06:47;3.13;;;1.97;;
37645;SDS011;23489;49.600;6.138;2023-07-28T09:09:13;2.03;;;1.80;;
37645;SDS011;23489;49.600;6.138;2023-07-28T09:14:12;2.53;;;2.07;;
37645;SDS011;23489;49.600;6.138;2023-07-28T09:16:41;2.97;;;2.25;;
37645;SDS011;23489;49.600;6.138;2023-07-28T09:19:07;2.10;;;1.90;;
37645;SDS011;23489;49.600;6.138;2023-07-28T09:21:34;2.28;;;2.08;;
37645;SDS011;23489;49.600;6.138;2023-07-28T09:24:00;2.30;;;1.90;;
37645;SDS011;23489;49.600;6.138;2023-07-28T09:26:41;2.73;;;1.90;;
37645;SDS011;23489;49.600;6.138;2023-07-28T09:29:13;2.90;;;1.80;;
37645;SDS011;23489;49.600;6.138;2023-07-28T09:31:43;2.80;;;1.80;;
37645;SDS011;23489;49.600;6.138;2023-07-28T09:34:10;2.80;;;1.80;;
37645;SDS011;23489;49.600;6.138;2023-07-28T09:36:36;2.20;;;1.80;;
37645;SDS011;23489;49.600;6.138;2023-07-28T09:39:03;3.20;;;2.00;;
37645;SDS011;23489;49.600;6.138;2023-07-28T09:41:32;3.58;;;1.90;;
37645;SDS011;23489;49.600;6.138;2023-07-28T09:44:03;1.83;;;1.70;;
37645;SDS011;23489;49.600;6.138;2023-07-28T09:46:30;2.75;;;1.85;;
37645;SDS011;23489;49.600;6.138;2023-07-28T09:48:59;2.42;;;1.63;;
37645;SDS011;23489;49.600;6.138;2023-07-28T09:51:29;3.07;;;1.60;;
37645;SDS011;23489;49.600;6.138;2023-07-28T09:54:07;1.73;;;1.63;;
37645;SDS011;23489;49.600;6.138;2023-07-28T09:56:37;1.70;;;1.60;;
37645;SDS011;23489;49.600;6.138;2023-07-28T09:59:05;2.25;;;1.50;;
37645;SDS011;23489;49.600;6.138;2023-07-28T10:01:37;1.93;;;1.53;;
37645;SDS011;23489;49.600;6.138;2023-07-28T10:04:03;1.90;;;1.70;;
37645;SDS011;23489;49.600;6.138;2023-07-28T10:06:30;2.67;;;1.60;;
37645;SDS011;23489;49.600;6.138;2023-07-28T10:08:58;1.73;;;1.50;;
37645;SDS011;23489;49.600;6.138;2023-07-28T10:11:25;2.85;;;1.50;;
37645;SDS011;23489;49.600;6.138;2023-07-28T10:13:53;3.20;;;1.90;;
37645;SDS011;23489;49.600;6.138;2023-07-28T10:16:19;1.90;;;1.60;;
37645;SDS011;23489;49.600;6.138;2023-07-28T10:18:54;1.75;;;1.40;;
37645;SDS011;23489;49.600;6.138;2023-07-28T10:21:20;4.28;;;1.50;;
37645;SDS011;23489;49.600;6.138;2023-07-28T10:23:53;2.97;;;1.88;;
37645;SDS011;23489;49.600;6.138;2023-07-28T10:26:39;3.03;;;2.70;;
37645;SDS011;23489;49.600;6.138;2023-07-28T10:29:13;2.42;;;2.22;;
37645;SDS011;23489;49.600;6.138;2023-07-28T10:31:58;3.78;;;2.30;;
37645;SDS011;23489;49.600;6.138;2023-07-28T10:34:25;3.15;;;2.00;;
37645;SDS011;23489;49.600;6.138;2023-07-28T10:36:57;2.25;;;1.77;;
37645;SDS011;23489;49.600;6.138;2023-07-28T10:39:24;1.95;;;1.75;;
37645;SDS011;23489;49.600;6.138;2023-07-28T10:42:04;2.43;;;1.80;;
37645;SDS011;23489;49.600;6.138;2023-07-28T10:44:31;2.05;;;1.70;;
37645;SDS011;23489;49.600;6.138;2023-07-28T10:46:58;2.55;;;1.73;;
37645;SDS011;23489;49.600;6.138;2023-07-28T10:49:24;1.90;;;1.67;;
37645;SDS011;23489;49.600;6.138;2023-07-28T10:51:50;1.70;;;1.60;;
37645;SDS011;23489;49.600;6.138;2023-07-28T10:54:16;1.98;;;1.75;;
37645;SDS011;23489;49.600;6.138;2023-07-28T10:56:45;3.00;;;1.50;;
37645;SDS011;23489;49.600;6.138;2023-07-28T10:59:14;2.60;;;1.73;;
37645;SDS011;23489;49.600;6.138;2023-07-28T11:01:40;1.70;;;1.60;;
37645;SDS011;23489;49.600;6.138;2023-07-28T11:04:18;3.10;;;1.70;;
37645;SDS011;23489;49.600;6.138;2023-07-28T11:06:45;1.52;;;1.40;;
37645;SDS011;23489;49.600;6.138;2023-07-28T11:09:13;2.30;;;1.92;;
37645;SDS011;23489;49.600;6.138;2023-07-28T11:11:39;2.67;;;1.80;;
37645;SDS011;23489;49.600;6.138;2023-07-28T11:14:06;1.75;;;1.40;;
37645;SDS011;23489;49.600;6.138;2023-07-28T11:16:33;1.95;;;1.45;;
37645;SDS011;23489;49.600;6.138;2023-07-28T11:19:04;1.92;;;1.30;;
37645;SDS011;23489;49.600;6.138;2023-07-28T11:21:40;2.10;;;1.30;;
37645;SDS011;23489;49.600;6.138;2023-07-28T11:24:08;1.83;;;1.63;;
37645;SDS011;23489;49.600;6.138;2023-07-28T11:26:34;1.50;;;1.13;;
37645;SDS011;23489;49.600;6.138;2023-07-28T11:29:01;2.55;;;1.73;;
37645;SDS011;23489;49.600;6.138;2023-07-28T11:31:28;4.75;;;3.80;;
37645;SDS011;23489;49.600;6.138;2023-07-28T11:33:53;4.83;;;3.87;;
37645;SDS011;23489;49.600;6.138;2023-07-28T11:36:23;6.90;;;4.77;;
37645;SDS011;23489;49.600;6.138;2023-07-28T11:38:50;4.88;;;3.55;;
37645;SDS011;23489;49.600;6.138;2023-07-28T11:41:17;2.40;;;2.10;;
37645;SDS011;23489;49.600;6.138;2023-07-28T11:43:44;2.17;;;1.90;;
37645;SDS011;23489;49.600;6.138;2023-07-28T11:46:32;2.50;;;1.60;;
37645;SDS011;23489;49.600;6.138;2023-07-28T11:49:12;2.90;;;2.20;;
37645;SDS011;23489;49.600;6.138;2023-07-28T11:51:41;2.38;;;2.17;;
37645;SDS011;23489;49.600;6.138;2023-07-28T11:54:14;2.40;;;2.20;;
37645;SDS011;23489;49.600;6.138;2023-07-28T11:56:45;2.47;;;2.10;;
37645;SDS011;23489;49.600;6.138;2023-07-28T11:59:12;2.40;;;2.00;;
37645;SDS011;23489;49.600;6.138;2023-07-28T12:01:53;2.47;;;2.00;;
37645;SDS011;23489;49.600;6.138;2023-07-28T12:04:35;3.47;;;2.00;;
37645;SDS011;23489;49.600;6.138;2023-07-28T12:12:13;2.28;;;2.05;;
37645;SDS011;23489;49.600;6.138;2023-07-28T12:14:39;2.20;;;2.00;;
37645;SDS011;23489;49.600;6.138;2023-07-28T12:17:11;2.10;;;1.90;;
37645;SDS011;23489;49.600;6.138;2023-07-28T12:19:58;2.17;;;1.98;;
37645;SDS011;23489;49.600;6.138;2023-07-28T12:22:25;2.40;;;1.70;;
37645;SDS011;23489;49.600;6.138;2023-07-28T12:24:52;2.10;;;1.90;;
37645;SDS011;23489;49.600;6.138;2023-07-28T12:27:18;2.10;;;1.90;;
37645;SDS011;23489;49.600;6.138;2023-07-28T12:29:45;2.80;;;1.90;;
37645;SDS011;23489;49.600;6.138;2023-07-28T12:32:11;2.60;;;2.03;;
37645;SDS011;23489;49.600;6.138;2023-07-28T12:34:37;3.00;;;1.93;;
37645;SDS011;23489;49.600;6.138;2023-07-28T12:37:03;2.33;;;2.13;;
37645;SDS011;23489;49.600;6.138;2023-07-28T12:39:28;2.63;;;2.10;;
37645;SDS011;23489;49.600;6.138;2023-07-28T12:41:54;2.58;;;2.00;;
37645;SDS011;23489;49.600;6.138;2023-07-28T12:44:20;3.35;;;1.90;;
37645;SDS011;23489;49.600;6.138;2023-07-28T12:46:46;2.40;;;2.00;;
37645;SDS011;23489;49.600;6.138;2023-07-28T12:49:11;3.58;;;2.20;;
37645;SDS011;23489;49.600;6.138;2023-07-28T12:51:37;2.40;;;1.98;;
37645;SDS011;23489;49.600;6.138;2023-07-28T12:54:03;2.60;;;2.20;;
37645;SDS011;23489;49.600;6.138;2023-07-28T12:56:29;2.70;;;2.00;;
37645;SDS011;23489;49.600;6.138;2023-07-28T12:58:55;2.53;;;2.13;;
37645;SDS011;23489;49.600;6.138;2023-07-28T13:01:20;5.43;;;2.57;;
37645;SDS011;23489;49.600;6.138;2023-07-28T13:03:46;2.87;;;2.30;;
37645;SDS011;23489;49.600;6.138;2023-07-28T13:06:12;3.22;;;2.75;;
37645;SDS011;23489;49.600;6.138;2023-07-28T13:08:37;2.88;;;2.40;;
37645;SDS011;23489;49.600;6.138;2023-07-28T13:11:03;2.70;;;2.35;;
37645;SDS011;23489;49.600;6.138;2023-07-28T13:13:29;3.65;;;1.98;;
37645;SDS011;23489;49.600;6.138;2023-07-28T13:15:55;2.10;;;1.90;;
37645;SDS011;23489;49.600;6.138;2023-07-28T13:18:22;2.17;;;1.77;;
37645;SDS011;23489;49.600;6.138;2023-07-28T13:20:49;2.20;;;1.80;;
37645;SDS011;23489;49.600;6.138;2023-07-28T13:23:14;2.73;;;1.60;;
37645;SDS011;23489;49.600;6.138;2023-07-28T13:25:41;2.45;;;1.60;;
37645;SDS011;23489;49.600;6.138;2023-07-28T13:28:07;1.97;;;1.70;;
37645;SDS011;23489;49.600;6.138;2023-07-28T13:30:33;2.13;;;1.70;;
37645;SDS011;23489;49.600;6.138;2023-07-28T13:32:58;2.28;;;1.70;;
37645;SDS011;23489;49.600;6.138;2023-07-28T13:35:24;2.00;;;1.40;;
37645;SDS011;23489;49.600;6.138;2023-07-28T13:37:50;1.85;;;1.50;;
37645;SDS011;23489;49.600;6.138;2023-07-28T13:40:15;2.47;;;1.63;;
37645;SDS011;23489;49.600;6.138;2023-07-28T13:42:41;1.53;;;1.40;;
37645;SDS011;23489;49.600;6.138;2023-07-28T13:45:08;1.77;;;1.67;;
37645;SDS011;23489;49.600;6.138;2023-07-28T13:47:34;2.63;;;1.70;;
37645;SDS011;23489;49.600;6.138;2023-07-28T13:50:01;2.42;;;1.58;;
37645;SDS011;23489;49.600;6.138;2023-07-28T13:52:26;2.70;;;1.60;;
37645;SDS011;23489;49.600;6.138;2023-07-28T13:54:52;2.20;;;1.50;;
37645;SDS011;23489;49.600;6.138;2023-07-28T13:57:18;1.60;;;1.50;;
37645;SDS011;23489;49.600;6.138;2023-07-28T13:59:44;2.10;;;1.50;;
37645;SDS011;23489;49.600;6.138;2023-07-28T14:02:10;1.95;;;1.50;;
37645;SDS011;23489;49.600;6.138;2023-07-28T14:04:35;2.45;;;1.80;;
37645;SDS011;23489;49.600;6.138;2023-07-28T14:07:01;1.80;;;1.70;;
37645;SDS011;23489;49.600;6.138;2023-07-28T14:09:26;2.57;;;1.67;;
37645;SDS011;23489;49.600;6.138;2023-07-28T14:11:52;2.50;;;1.60;;
37645;SDS011;23489;49.600;6.138;2023-07-28T14:14:17;2.40;;;1.60;;
37645;SDS011;23489;49.600;6.138;2023-07-28T14:16:43;2.00;;;1.60;;
37645;SDS011;23489;49.600;6.138;2023-07-28T14:19:09;2.90;;;1.90;;
37645;SDS011;23489;49.600;6.138;2023-07-28T14:21:34;2.60;;;2.00;;
37645;SDS011;23489;49.600;6.138;2023-07-28T14:24:03;2.13;;;1.92;;
37645;SDS011;23489;49.600;6.138;2023-07-28T14:26:30;2.67;;;2.10;;
37645;SDS011;23489;49.600;6.138;2023-07-28T14:28:55;2.40;;;1.67;;
37645;SDS011;23489;49.600;6.138;2023-07-28T14:31:21;4.70;;;1.60;;
37645;SDS011;23489;49.600;6.138;2023-07-28T14:33:46;2.60;;;1.70;;
37645;SDS011;23489;49.600;6.138;2023-07-28T14:36:12;2.73;;;1.30;;
37645;SDS011;23489;49.600;6.138;2023-07-28T14:38:38;2.00;;;1.60;;
37645;SDS011;23489;49.600;6.138;2023-07-28T14:41:04;1.70;;;1.60;;
37645;SDS011;23489;49.600;6.138;2023-07-28T14:43:29;2.33;;;2.13;;
37645;SDS011;23489;49.600;6.138;2023-07-28T14:45:55;2.20;;;1.50;;
37645;SDS011;23489;49.600;6.138;2023-07-28T14:48:21;1.57;;;1.47;;
37645;SDS011;23489;49.600;6.138;2023-07-28T14:50:46;1.60;;;1.30;;
37645;SDS011;23489;49.600;6.138;2023-07-28T14:53:28;2.50;;;1.25;;
37645;SDS011;23489;49.600;6.138;2023-07-28T14:55:54;1.98;;;1.20;;
37645;SDS011;23489;49.600;6.138;2023-07-28T14:58:20;3.40;;;1.30;;
37645;SDS011;23489;49.600;6.138;2023-07-28T15:00:46;1.92;;;1.30;;
37645;SDS011;23489;49.600;6.138;2023-07-28T15:03:11;2.10;;;1.40;;
37645;SDS011;23489;49.600;6.138;2023-07-28T15:05:37;1.48;;;1.30;;
37645;SDS011;23489;49.600;6.138;2023-07-28T15:08:03;1.50;;;1.07;;
37645;SDS011;23489;49.600;6.138;2023-07-28T15:10:28;1.97;;;1.00;;
37645;SDS011;23489;49.600;6.138;2023-07-28T15:12:54;1.10;;;1.10;;
37645;SDS011;23489;49.600;6.138;2023-07-28T15:15:20;1.40;;;1.15;;
37645;SDS011;23489;49.600;6.138;2023-07-28T15:17:45;2.28;;;1.20;;
37645;SDS011;23489;49.600;6.138;2023-07-28T15:20:11;2.30;;;1.30;;
37645;SDS011;23489;49.600;6.138;2023-07-28T15:22:37;3.23;;;1.30;;
37645;SDS011;23489;49.600;6.138;2023-07-28T15:25:02;1.47;;;1.30;;
37645;SDS011;23489;49.600;6.138;2023-07-28T15:27:28;1.30;;;1.20;;
37645;SDS011;23489;49.600;6.138;2023-07-28T15:29:54;1.20;;;1.10;;
37645;SDS011;23489;49.600;6.138;2023-07-28T15:32:19;1.60;;;0.90;;
37645;SDS011;23489;49.600;6.138;2023-07-28T15:34:45;2.17;;;1.30;;
37645;SDS011;23489;49.600;6.138;2023-07-28T15:37:11;1.80;;;1.43;;
37645;SDS011;23489;49.600;6.138;2023-07-28T15:39:36;3.20;;;1.20;;
37645;SDS011;23489;49.600;6.138;2023-07-28T15:42:02;3.20;;;1.27;;
37645;SDS011;23489;49.600;6.138;2023-07-28T15:44:27;1.47;;;1.37;;
37645;SDS011;23489;49.600;6.138;2023-07-28T15:46:53;1.63;;;1.40;;
37645;SDS011;23489;49.600;6.138;2023-07-28T15:49:18;1.90;;;1.40;;
37645;SDS011;23489;49.600;6.138;2023-07-28T15:51:44;2.30;;;1.30;;
37645;SDS011;23489;49.600;6.138;2023-07-28T15:54:10;1.65;;;1.10;;
37645;SDS011;23489;49.600;6.138;2023-07-28T15:56:36;1.40;;;1.10;;
37645;SDS011;23489;49.600;6.138;2023-07-28T15:59:02;1.30;;;1.10;;
37645;SDS011;23489;49.600;6.138;2023-07-28T16:01:27;1.45;;;1.10;;
37645;SDS011;23489;49.600;6.138;2023-07-28T16:03:53;1.53;;;1.20;;
37645;SDS011;23489;49.600;6.138;2023-07-28T16:06:19;1.33;;;1.20;;
37645;SDS011;23489;49.600;6.138;2023-07-28T16:08:44;1.10;;;1.00;;
37645;SDS011;23489;49.600;6.138;2023-07-28T16:11:10;2.27;;;1.13;;
37645;SDS011;23489;49.600;6.138;2023-07-28T16:13:35;1.50;;;1.40;;
37645;SDS011;23489;49.600;6.138;2023-07-28T16:16:01;1.88;;;1.30;;
37645;SDS011;23489;49.600;6.138;2023-07-28T16:18:28;1.95;;;1.10;;
37645;SDS011;23489;49.600;6.138;2023-07-28T16:20:53;1.23;;;1.13;;
37645;SDS011;23489;49.600;6.138;2023-07-28T16:23:19;1.35;;;1.20;;
37645;SDS011;23489;49.600;6.138;2023-07-28T16:25:45;1.50;;;1.20;;
37645;SDS011;23489;49.600;6.138;2023-07-28T16:28:15;1.20;;;1.10;;
37645;SDS011;23489;49.600;6.138;2023-07-28T16:30:41;1.40;;;1.17;;
37645;SDS011;23489;49.600;6.138;2023-07-28T16:33:07;1.50;;;1.20;;
37645;SDS011;23489;49.600;6.138;2023-07-28T16:35:33;1.90;;;1.70;;
37645;SDS011;23489;49.600;6.138;2023-07-28T16:37:59;1.25;;;1.15;;
37645;SDS011;23489;49.600;6.138;2023-07-28T16:40:25;1.03;;;0.90;;
37645;SDS011;23489;49.600;6.138;2023-07-28T16:42:50;1.17;;;1.03;;
37645;SDS011;23489;49.600;6.138;2023-07-28T16:45:16;1.30;;;1.20;;
37645;SDS011;23489;49.600;6.138;2023-07-28T16:47:42;1.20;;;1.10;;
37645;SDS011;23489;49.600;6.138;2023-07-28T16:50:07;2.83;;;1.35;;
37645;SDS011;23489;49.600;6.138;2023-07-28T16:52:33;1.55;;;1.30;;
37645;SDS011;23489;49.600;6.138;2023-07-28T16:55:00;1.30;;;1.20;;
37645;SDS011;23489;49.600;6.138;2023-07-28T16:57:26;1.10;;;1.00;;
37645;SDS011;23489;49.600;6.138;2023-07-28T16:59:52;1.20;;;1.10;;
37645;SDS011;23489;49.600;6.138;2023-07-28T17:02:17;1.40;;;1.15;;
37645;SDS011;23489;49.600;6.138;2023-07-28T17:04:43;1.13;;;1.02;;
37645;SDS011;23489;49.600;6.138;2023-07-28T17:07:09;1.50;;;1.05;;
37645;SDS011;23489;49.600;6.138;2023-07-28T17:09:35;1.30;;;1.10;;
37645;SDS011;23489;49.600;6.138;2023-07-28T17:12:00;2.90;;;1.97;;
37645;SDS011;23489;49.600;6.138;2023-07-28T17:14:26;2.10;;;1.52;;
37645;SDS011;23489;49.600;6.138;2023-07-28T17:16:52;2.33;;;1.58;;
37645;SDS011;23489;49.600;6.138;2023-07-28T17:19:19;2.50;;;1.60;;
37645;SDS011;23489;49.600;6.138;2023-07-28T17:21:45;1.80;;;1.20;;
37645;SDS011;23489;49.600;6.138;2023-07-28T17:24:11;1.40;;;1.23;;
37645;SDS011;23489;49.600;6.138;2023-07-28T17:26:36;2.20;;;1.30;;
37645;SDS011;23489;49.600;6.138;2023-07-28T17:29:04;1.60;;;1.38;;
37645;SDS011;23489;49.600;6.138;2023-07-28T17:31:29;1.83;;;1.47;;
37645;SDS011;23489;49.600;6.138;2023-07-28T17:33:55;1.70;;;1.30;;
37645;SDS011;23489;49.600;6.138;2023-07-28T17:36:21;2.42;;;1.42;;
37645;SDS011;23489;49.600;6.138;2023-07-28T17:38:47;1.63;;;1.50;;
37645;SDS011;23489;49.600;6.138;2023-07-28T17:41:12;1.97;;;1.47;;
37645;SDS011;23489;49.600;6.138;2023-07-28T17:43:38;3.03;;;1.60;;
37645;SDS011;23489;49.600;6.138;2023-07-28T17:46:03;1.90;;;1.50;;
37645;SDS011;23489;49.600;6.138;2023-07-28T17:48:29;4.30;;;1.60;;
37645;SDS011;23489;49.600;6.138;2023-07-28T17:50:56;1.88;;;1.27;;
37645;SDS011;23489;49.600;6.138;2023-07-28T17:53:21;1.80;;;1.40;;
37645;SDS011;23489;49.600;6.138;2023-07-28T17:55:48;2.53;;;1.60;;
37645;SDS011;23489;49.600;6.138;2023-07-28T17:58:13;1.70;;;1.30;;
37645;SDS011;23489;49.600;6.138;2023-07-28T18:00:39;2.67;;;1.30;;
37645;SDS011;23489;49.600;6.138;2023-07-28T18:03:05;3.73;;;1.70;;
37645;SDS011;23489;49.600;6.138;2023-07-28T18:05:30;2.70;;;1.50;;
37645;SDS011;23489;49.600;6.138;2023-07-28T18:07:56;2.70;;;1.70;;
37645;SDS011;23489;49.600;6.138;2023-07-28T18:10:22;1.40;;;1.30;;
37645;SDS011;23489;49.600;6.138;2023-07-28T18:12:48;2.20;;;1.55;;
37645;SDS011;23489;49.600;6.138;2023-07-28T18:15:14;2.88;;;2.00;;
37645;SDS011;23489;49.600;6.138;2023-07-28T18:17:40;1.60;;;1.50;;
37645;SDS011;23489;49.600;6.138;2023-07-28T18:20:06;2.88;;;2.10;;
37645;SDS011;23489;49.600;6.138;2023-07-28T18:22:32;2.58;;;1.90;;
37645;SDS011;23489;49.600;6.138;2023-07-28T18:24:58;1.85;;;1.52;;
37645;SDS011;23489;49.600;6.138;2023-07-28T18:27:24;1.88;;;1.30;;
37645;SDS011;23489;49.600;6.138;2023-07-28T18:29:50;2.00;;;1.42;;
37645;SDS011;23489;49.600;6.138;2023-07-28T18:32:15;2.47;;;1.30;;
37645;SDS011;23489;49.600;6.138;2023-07-28T18:34:41;1.50;;;1.20;;
37645;SDS011;23489;49.600;6.138;2023-07-28T18:37:07;1.77;;;1.40;;
37645;SDS011;23489;49.600;6.138;2023-07-28T18:39:32;1.92;;;1.13;;
37645;SDS011;23489;49.600;6.138;2023-07-28T18:41:59;1.47;;;1.10;;
37645;SDS011;23489;49.600;6.138;2023-07-28T18:44:25;1.45;;;1.20;;
37645;SDS011;23489;49.600;6.138;2023-07-28T18:46:51;2.00;;;1.60;;
37645;SDS011;23489;49.600;6.138;2023-07-28T18:49:17;2.25;;;1.25;;
37645;SDS011;23489;49.600;6.138;2023-07-28T18:51:43;1.50;;;1.25;;
37645;SDS011;23489;49.600;6.138;2023-07-28T18:54:09;2.38;;;1.38;;
37645;SDS011;23489;49.600;6.138;2023-07-28T18:56:35;1.70;;;1.40;;
37645;SDS011;23489;49.600;6.138;2023-07-28T18:59:00;3.83;;;2.20;;
37645;SDS011;23489;49.600;6.138;2023-07-28T19:01:26;3.58;;;2.28;;
37645;SDS011;23489;49.600;6.138;2023-07-28T19:03:51;3.60;;;1.80;;
37645;SDS011;23489;49.600;6.138;2023-07-28T19:06:17;3.33;;;1.83;;
37645;SDS011;23489;49.600;6.138;2023-07-28T19:08:45;2.15;;;1.85;;
37645;SDS011;23489;49.600;6.138;2023-07-28T19:11:13;2.55;;;1.63;;
37645;SDS011;23489;49.600;6.138;2023-07-28T19:13:39;3.03;;;1.93;;
37645;SDS011;23489;49.600;6.138;2023-07-28T19:16:04;2.70;;;1.50;;
37645;SDS011;23489;49.600;6.138;2023-07-28T19:18:30;1.70;;;1.50;;
37645;SDS011;23489;49.600;6.138;2023-07-28T19:20:55;2.30;;;1.60;;
37645;SDS011;23489;49.600;6.138;2023-07-28T19:23:21;2.72;;;1.60;;
37645;SDS011;23489;49.600;6.138;2023-07-28T19:25:50;2.33;;;1.67;;
37645;SDS011;23489;49.600;6.138;2023-07-28T19:28:17;2.75;;;1.90;;
37645;SDS011;23489;49.600;6.138;2023-07-28T19:30:43;1.60;;;1.50;;
37645;SDS011;23489;49.600;6.138;2023-07-28T19:33:09;2.00;;;1.60;;
37645;SDS011;23489;49.600;6.138;2023-07-28T19:35:34;2.40;;;1.60;;
37645;SDS011;23489;49.600;6.138;2023-07-28T19:38:00;2.80;;;1.60;;
37645;SDS011;23489;49.600;6.138;2023-07-28T19:40:25;2.60;;;1.50;;
37645;SDS011;23489;49.600;6.138;2023-07-28T19:42:51;1.90;;;1.70;;
37645;SDS011;23489;49.600;6.138;2023-07-28T19:45:19;1.90;;;1.50;;
37645;SDS011;23489;49.600;6.138;2023-07-28T19:47:46;1.55;;;1.40;;
37645;SDS011;23489;49.600;6.138;2023-07-28T19:50:11;2.00;;;1.30;;
37645;SDS011;23489;49.600;6.138;2023-07-28T19:52:38;2.57;;;1.40;;
37645;SDS011;23489;49.600;6.138;2023-07-28T19:55:04;2.15;;;1.63;;
37645;SDS011;23489;49.600;6.138;2023-07-28T19:57:30;2.10;;;1.90;;
37645;SDS011;23489;49.600;6.138;2023-07-28T19:59:55;2.22;;;1.90;;
37645;SDS011;23489;49.600;6.138;2023-07-28T20:02:21;1.70;;;1.60;;
37645;SDS011;23489;49.600;6.138;2023-07-28T20:04:47;3.03;;;1.83;;
37645;SDS011;23489;49.600;6.138;2023-07-28T20:07:13;4.30;;;3.90;;
37645;SDS011;23489;49.600;6.138;2023-07-28T20:09:38;3.95;;;3.30;;
37645;SDS011;23489;49.600;6.138;2023-07-28T20:12:04;3.05;;;2.22;;
37645;SDS011;23489;49.600;6.138;2023-07-28T20:14:32;3.50;;;2.10;;
37645;SDS011;23489;49.600;6.138;2023-07-28T20:16:58;2.67;;;2.45;;
37645;SDS011;23489;49.600;6.138;2023-07-28T20:19:24;2.50;;;2.23;;
37645;SDS011;23489;49.600;6.138;2023-07-28T20:21:50;2.22;;;1.70;;
37645;SDS011;23489;49.600;6.138;2023-07-28T20:24:15;2.50;;;2.00;;
37645;SDS011;23489;49.600;6.138;2023-07-28T20:26:41;2.22;;;1.83;;
37645;SDS011;23489;49.600;6.138;2023-07-28T20:29:06;1.67;;;1.50;;
37645;SDS011;23489;49.600;6.138;2023-07-28T20:31:32;1.48;;;1.30;;
37645;SDS011;23489;49.600;6.138;2023-07-28T20:33:58;1.95;;;1.70;;
37645;SDS011;23489;49.600;6.138;2023-07-28T20:36:24;2.08;;;1.88;;
37645;SDS011;23489;49.600;6.138;2023-07-28T20:38:51;2.45;;;1.70;;
37645;SDS011;23489;49.600;6.138;2023-07-28T20:41:16;1.80;;;1.60;;
37645;SDS011;23489;49.600;6.138;2023-07-28T20:43:42;3.53;;;1.50;;
37645;SDS011;23489;49.600;6.138;2023-07-28T20:46:09;2.38;;;1.60;;
37645;SDS011;23489;49.600;6.138;2023-07-28T20:48:35;1.60;;;1.50;;
37645;SDS011;23489;49.600;6.138;2023-07-28T20:51:01;2.27;;;1.50;;
37645;SDS011;23489;49.600;6.138;2023-07-28T20:53:26;2.10;;;1.30;;
37645;SDS011;23489;49.600;6.138;2023-07-28T20:55:56;2.10;;;1.30;;
37645;SDS011;23489;49.600;6.138;2023-07-28T20:58:22;3.20;;;1.40;;
37645;SDS011;23489;49.600;6.138;2023-07-28T21:00:51;2.15;;;1.45;;
37645;SDS011;23489;49.600;6.138;2023-07-28T21:03:20;1.92;;;1.60;;
37645;SDS011;23489;49.600;6.138;2023-07-28T21:05:46;2.40;;;1.60;;
37645;SDS011;23489;49.600;6.138;2023-07-28T21:08:11;1.80;;;1.50;;
37645;SDS011;23489;49.600;6.138;2023-07-28T21:10:38;2.10;;;1.33;;
37645;SDS011;23489;49.600;6.138;2023-07-28T21:13:04;2.05;;;1.42;;
37645;SDS011;23489;49.600;6.138;2023-07-28T21:15:33;2.42;;;1.50;;
37645;SDS011;23489;49.600;6.138;2023-07-28T21:18:00;1.77;;;1.30;;
37645;SDS011;23489;49.600;6.138;2023-07-28T21:20:26;2.30;;;1.50;;
37645;SDS011;23489;49.600;6.138;2023-07-28T21:22:51;2.08;;;1.58;;
37645;SDS011;23489;49.600;6.138;2023-07-28T21:25:17;3.07;;;1.40;;
37645;SDS011;23489;49.600;6.138;2023-07-28T21:27:42;2.00;;;1.40;;
37645;SDS011;23489;49.600;6.138;2023-07-28T21:30:08;1.90;;;1.50;;
37645;SDS011;23489;49.600;6.138;2023-07-28T21:32:37;1.70;;;1.48;;
37645;SDS011;23489;49.600;6.138;2023-07-28T21:35:03;2.38;;;1.63;;
37645;SDS011;23489;49.600;6.138;2023-07-28T21:37:29;1.73;;;1.40;;
37645;SDS011;23489;49.600;6.138;2023-07-28T21:39:55;2.10;;;1.40;;
37645;SDS011;23489;49.600;6.138;2023-07-28T21:42:21;2.53;;;1.40;;
37645;SDS011;23489;49.600;6.138;2023-07-28T21:44:47;1.55;;;1.40;;
37645;SDS011;23489;49.600;6.138;2023-07-28T21:47:13;2.30;;;1.50;;
37645;SDS011;23489;49.600;6.138;2023-07-28T21:49:39;1.73;;;1.60;;
37645;SDS011;23489;49.600;6.138;2023-07-28T21:52:04;1.70;;;1.60;;
37645;SDS011;23489;49.600;6.138;2023-07-28T21:54:30;1.70;;;1.60;;
37645;SDS011;23489;49.600;6.138;2023-07-28T21:56:56;1.73;;;1.40;;
37645;SDS011;23489;49.600;6.138;2023-07-28T21:59:21;2.63;;;1.40;;
37645;SDS011;23489;49.600;6.138;2023-07-28T22:01:47;1.50;;;1.40;;
37645;SDS011;23489;49.600;6.138;2023-07-28T22:04:12;1.70;;;1.40;;
37645;SDS011;23489;49.600;6.138;2023-07-28T22:06:38;2.10;;;1.50;;
37645;SDS011;23489;49.600;6.138;2023-07-28T22:09:03;2.33;;;1.45;;
37645;SDS011;23489;49.600;6.138;2023-07-28T22:11:30;2.03;;;1.58;;
37645;SDS011;23489;49.600;6.138;2023-07-28T22:13:56;2.13;;;1.57;;
37645;SDS011;23489;49.600;6.138;2023-07-28T22:16:21;2.00;;;1.50;;
37645;SDS011;23489;49.600;6.138;2023-07-28T22:18:47;1.77;;;1.60;;
37645;SDS011;23489;49.600;6.138;2023-07-28T22:21:13;2.30;;;1.58;;
37645;SDS011;23489;49.600;6.138;2023-07-28T22:23:39;1.77;;;1.50;;
37645;SDS011;23489;49.600;6.138;2023-07-28T22:26:04;2.10;;;1.57;;
37645;SDS011;23489;49.600;6.138;2023-07-28T22:28:31;2.55;;;1.50;;
37645;SDS011;23489;49.600;6.138;2023-07-28T22:30:56;2.20;;;1.60;;